Asian Infinity — 3EVP3 — position and weather

sailwx.info

Track history (hours):
 
Tides and Currents Weather Stations Pressure Air Temp Water Temp Dewpoint Dewpoint Depression Visibility Wind Speed Wind Dir Waves Ship Positions

Asian Infinity

Last reported at 2016-Dec-07 00:27 UTC. Time now 2016-Dec-07 22:23 UTC.
Position N 37°53' E 121°56'.

Length 104 m; draft 7.2 m.

Type: Cargo ship. MMSI: 351868000.

Date/timePositionNaut miles runAvg speedWind from/ knotsBaromVisibWave heightAir tempDewpointWater temp
2016-Dec-07 00:27N 37°53' E 121°56'1210.8
2016-Dec-06 23:19N 37°55' E 121°41'810.7
2016-Dec-06 22:33N 37°56' E 121°30'1310.4
2016-Dec-06 21:15N 37°56' E 121°13'45 9.5
2016-Dec-06 16:33N 37°57' E 120°16'2311.4
2016-Dec-06 14:33N 37°45' E 119°53'20 2.1
2016-Dec-06 05:21N 37°25' E 119°57'2 0.4
2016-Dec-06 00:33N 37°27' E 119°56'6 0.1
2016-Dec-04 05:24N 37°32' E 119°51'6 6.9
2016-Dec-04 04:32N 37°38' E 119°51'1212.0
2016-Dec-04 03:34N 37°50' E 119°47'8319.1
2016-Dec-03 23:11N 38°44' E 118°27'8 2.0
2016-Dec-03 19:28N 38°48' E 118°18'9 9.8
2016-Dec-03 18:34N 38°53' E 118°09'8 8.2
2016-Dec-03 17:33N 38°56' E 117°59'1010.5
2016-Dec-03 16:34N 38°58' E 117°46'1 0.1
2016-Dec-03 11:15N 38°59' E 117°45'0 0.0
2016-Dec-03 10:21N 38°59' E 117°45'0 0.0
2016-Dec-03 09:33N 38°59' E 117°45'0 0.0
2016-Dec-03 08:33N 38°59' E 117°45'0 0.0
2016-Dec-03 07:27N 38°59' E 117°45'0 0.0
2016-Dec-03 06:33N 38°59' E 117°45'0 0.0
2016-Dec-03 05:15N 38°59' E 117°45'0 0.0
2016-Dec-03 04:27N 38°59' E 117°45'0 0.0
2016-Dec-03 03:33N 38°59' E 117°45'0 0.0
2016-Dec-03 02:33N 38°59' E 117°45'0 0.0
2016-Dec-03 01:33N 38°59' E 117°45'0 0.0
2016-Dec-03 00:33N 38°59' E 117°45'0 0.0
2016-Dec-02 23:27N 38°59' E 117°45'2 1.7
2016-Dec-02 22:33N 38°58' E 117°47'1210.9
2016-Dec-02 21:30N 38°57' E 118°02'4 0.4
2016-Dec-02 11:29N 38°58' E 118°06'0 0.0
2016-Dec-02 02:17N 38°58' E 118°06'0 0.0
2016-Dec-02 01:29N 38°58' E 118°06'1 1.4
2016-Dec-02 00:33N 38°57' E 118°07'11 8.8
2016-Dec-01 23:22N 38°52' E 118°19'7 8.8
2016-Dec-01 22:33N 38°51' E 118°28'9 9.3
2016-Dec-01 21:33N 38°49' E 118°40'9410.5
2016-Dec-01 12:33N 38°38' E 120°40'10 9.7
2016-Dec-01 11:33N 38°36' E 120°53'9 9.1
2016-Dec-01 10:33N 38°33' E 121°03'23 9.1
2016-Dec-01 08:04N 38°32' E 121°32'5 9.6
2016-Dec-01 07:31N 38°32' E 121°39'8 8.9
2016-Dec-01 06:34N 38°39' E 121°44'1211.0
2016-Dec-01 05:31N 38°51' E 121°45'10 9.9
2016-Dec-01 04:32N 39°00' E 121°46'7 0.2
2016-Nov-29 21:23N 38°53' E 121°47'16 8.4
2016-Nov-29 19:31N 38°41' E 121°59'10014.0
2016-Nov-29 12:20N 37°14' E 123°02'362 8.4
2016-Nov-27 17:06N 31°17' E 121°50'610.9
2016-Nov-27 16:32N 31°19' E 121°43'1010.0
2016-Nov-27 15:33N 31°24' E 121°33'10 9.3
2016-Nov-27 14:29N 31°30' E 121°23'0 0.0
2016-Nov-27 01:30N 31°30' E 121°23'  
Track history (hours):
 
Tides and Currents Weather Stations Pressure Air Temp Water Temp Dewpoint Dewpoint Depression Visibility Wind Speed Wind Dir Waves Ship Positions

Asian Infinity

Last reported at 2016-Dec-07 00:27 UTC. Time now 2016-Dec-07 22:23 UTC.
Position N 37°53' E 121°56'.

Length 104 m; draft 7.2 m.

Type: Cargo ship. MMSI: 351868000.

Date/timePositionNaut miles runAvg speedWind from/ knotsBaromVisibWave heightAir tempDewpointWater temp
2016-Dec-07 00:27N 37°53' E 121°56'1210.8
2016-Dec-06 23:19N 37°55' E 121°41'810.7
2016-Dec-06 22:33N 37°56' E 121°30'1310.4
2016-Dec-06 21:15N 37°56' E 121°13'45 9.5
2016-Dec-06 16:33N 37°57' E 120°16'2311.4
2016-Dec-06 14:33N 37°45' E 119°53'20 2.1
2016-Dec-06 05:21N 37°25' E 119°57'2 0.4
2016-Dec-06 00:33N 37°27' E 119°56'6 0.1
2016-Dec-04 05:24N 37°32' E 119°51'6 6.9
2016-Dec-04 04:32N 37°38' E 119°51'1212.0
2016-Dec-04 03:34N 37°50' E 119°47'8319.1
2016-Dec-03 23:11N 38°44' E 118°27'8 2.0
2016-Dec-03 19:28N 38°48' E 118°18'9 9.8
2016-Dec-03 18:34N 38°53' E 118°09'8 8.2
2016-Dec-03 17:33N 38°56' E 117°59'1010.5
2016-Dec-03 16:34N 38°58' E 117°46'1 0.1
2016-Dec-03 11:15N 38°59' E 117°45'0 0.0
2016-Dec-03 10:21N 38°59' E 117°45'0 0.0
2016-Dec-03 09:33N 38°59' E 117°45'0 0.0
2016-Dec-03 08:33N 38°59' E 117°45'0 0.0
2016-Dec-03 07:27N 38°59' E 117°45'0 0.0
2016-Dec-03 06:33N 38°59' E 117°45'0 0.0
2016-Dec-03 05:15N 38°59' E 117°45'0 0.0
2016-Dec-03 04:27N 38°59' E 117°45'0 0.0
2016-Dec-03 03:33N 38°59' E 117°45'0 0.0
2016-Dec-03 02:33N 38°59' E 117°45'0 0.0
2016-Dec-03 01:33N 38°59' E 117°45'0 0.0
2016-Dec-03 00:33N 38°59' E 117°45'0 0.0
2016-Dec-02 23:27N 38°59' E 117°45'2 1.7
2016-Dec-02 22:33N 38°58' E 117°47'1210.9
2016-Dec-02 21:30N 38°57' E 118°02'4 0.4
2016-Dec-02 11:29N 38°58' E 118°06'0 0.0
2016-Dec-02 02:17N 38°58' E 118°06'0 0.0
2016-Dec-02 01:29N 38°58' E 118°06'1 1.4
2016-Dec-02 00:33N 38°57' E 118°07'11 8.8
2016-Dec-01 23:22N 38°52' E 118°19'7 8.8
2016-Dec-01 22:33N 38°51' E 118°28'9 9.3
2016-Dec-01 21:33N 38°49' E 118°40'9410.5
2016-Dec-01 12:33N 38°38' E 120°40'10 9.7
2016-Dec-01 11:33N 38°36' E 120°53'9 9.1
2016-Dec-01 10:33N 38°33' E 121°03'23 9.1
2016-Dec-01 08:04N 38°32' E 121°32'5 9.6
2016-Dec-01 07:31N 38°32' E 121°39'8 8.9
2016-Dec-01 06:34N 38°39' E 121°44'1211.0
2016-Dec-01 05:31N 38°51' E 121°45'10 9.9
2016-Dec-01 04:32N 39°00' E 121°46'7 0.2
2016-Nov-29 21:23N 38°53' E 121°47'16 8.4
2016-Nov-29 19:31N 38°41' E 121°59'10014.0
2016-Nov-29 12:20N 37°14' E 123°02'362 8.4
2016-Nov-27 17:06N 31°17' E 121°50'610.9
2016-Nov-27 16:32N 31°19' E 121°43'1010.0
2016-Nov-27 15:33N 31°24' E 121°33'10 9.3
2016-Nov-27 14:29N 31°30' E 121°23'0 0.0
2016-Nov-27 01:30N 31°30' E 121°23'  

Dump ship's entire track history